Time;durP1;ratioP1;P1;durP2;ratioP2;P2;SDS_P1;SDS_P2;PMS_P1;PMS_P2;Temp;Humidity;BMP_temperature;BMP_pressure;BME280_temperature;BME280_humidity;BME280_pressure;Samples;Min_cycle;Max_cycle;Signal;HPM_P1;HPM_P2
2019/08/07 00:00:53;;;;;;;3.25;2.6;;;;;;;19.54;65.94727;94795.72;;;;
2019/08/07 00:03:11;;;;;;;3.25;2.6;;;;;;;19.54;65.94727;94795.72;;;;
2019/08/07 00:04:24;;;;;;;3.25;2.6;;;;;;;19.54;65.94727;94795.72;;;;
2019/08/07 00:05:28;;;;;;;3.25;2.6;;;;;;;19.54;65.94727;94795.72;;;;
2019/08/07 00:06:31;;;;;;;3.25;2.6;;;;;;;19.54;65.94727;94795.72;;;;
2019/08/07 00:07:33;;;;;;;2.7;2.4;;;;;;;19.6;66.07715;94790.81;;;;
2019/08/07 00:08:34;;;;;;;2.7;2.4;;;;;;;19.6;66.07715;94790.81;;;;
2019/08/07 00:09:35;;;;;;;2.7;2.4;;;;;;;19.6;66.07715;94790.81;;;;
2019/08/07 00:10:36;;;;;;;2.7;2.4;;;;;;;19.6;66.07715;94790.81;;;;
2019/08/07 00:11:37;;;;;;;2.7;2.4;;;;;;;19.6;66.07715;94790.81;;;;
2019/08/07 00:12:38;;;;;;;2.7;2.4;;;;;;;19.6;66.07715;94790.81;;;;
2019/08/07 00:13:40;;;;;;;2.7;2.4;;;;;;;19.6;66.07715;94790.81;;;;
2019/08/07 00:14:41;;;;;;;2.7;2.4;;;;;;;19.6;66.07715;94790.81;;;;
2019/08/07 00:15:42;;;;;;;2.7;2.4;;;;;;;19.6;66.07715;94790.81;;;;
2019/08/07 00:16:43;;;;;;;2.7;2.4;;;;;;;19.6;66.07715;94790.81;;;;
2019/08/07 00:17:44;;;;;;;2.7;2.4;;;;;;;19.6;66.07715;94790.81;;;;
2019/08/07 00:18:45;;;;;;;3.25;2.65;;;;;;;19.58;66.16016;94803.17;;;;
2019/08/07 00:19:46;;;;;;;3.25;2.65;;;;;;;19.58;66.16016;94803.17;;;;
2019/08/07 00:20:48;;;;;;;3.25;2.65;;;;;;;19.58;66.16016;94803.17;;;;
2019/08/07 00:22:05;;;;;;;3.25;2.65;;;;;;;19.58;66.16016;94803.17;;;;
2019/08/07 00:23:06;;;;;;;3.25;2.65;;;;;;;19.58;66.16016;94803.17;;;;
2019/08/07 00:24:07;;;;;;;3.25;2.65;;;;;;;19.58;66.16016;94803.17;;;;
2019/08/07 00:25:08;;;;;;;3.25;2.65;;;;;;;19.58;66.16016;94803.17;;;;
2019/08/07 00:26:10;;;;;;;3.25;2.65;;;;;;;19.58;66.16016;94803.17;;;;
2019/08/07 00:27:11;;;;;;;3.25;2.65;;;;;;;19.58;66.16016;94803.17;;;;
2019/08/07 00:28:13;;;;;;;3.25;2.65;;;;;;;19.58;66.16016;94803.17;;;;
2019/08/07 00:29:14;;;;;;;2.85;2.65;;;;;;;19.38;67.86035;94814.92;;;;
2019/08/07 00:30:15;;;;;;;2.85;2.65;;;;;;;19.38;67.86035;94814.92;;;;
2019/08/07 00:31:24;;;;;;;2.85;2.65;;;;;;;19.38;67.86035;94814.92;;;;
2019/08/07 00:35:41;;;;;;;2.85;2.65;;;;;;;19.38;67.86035;94814.92;;;;
2019/08/07 00:36:42;;;;;;;2.85;2.65;;;;;;;19.38;67.86035;94814.92;;;;
2019/08/07 00:37:44;;;;;;;2.85;2.65;;;;;;;19.38;67.86035;94814.92;;;;
2019/08/07 00:38:45;;;;;;;2.85;2.65;;;;;;;19.38;67.86035;94814.92;;;;
2019/08/07 00:39:46;;;;;;;4.95;3.2;;;;;;;19.1;70.01367;94815.95;;;;
2019/08/07 00:40:47;;;;;;;4.95;3.2;;;;;;;19.1;70.01367;94815.95;;;;
2019/08/07 00:41:48;;;;;;;4.95;3.2;;;;;;;19.1;70.01367;94815.95;;;;
2019/08/07 00:42:49;;;;;;;4.95;3.2;;;;;;;19.1;70.01367;94815.95;;;;
2019/08/07 00:43:51;;;;;;;4.95;3.2;;;;;;;19.1;70.01367;94815.95;;;;
2019/08/07 00:44:52;;;;;;;4.95;3.2;;;;;;;19.1;70.01367;94815.95;;;;
2019/08/07 00:45:53;;;;;;;4.95;3.2;;;;;;;19.1;70.01367;94815.95;;;;
2019/08/07 00:46:55;;;;;;;4.95;3.2;;;;;;;19.1;70.01367;94815.95;;;;
2019/08/07 00:47:56;;;;;;;4.95;3.2;;;;;;;19.1;70.01367;94815.95;;;;
2019/08/07 00:48:59;;;;;;;4.95;3.2;;;;;;;19.1;70.01367;94815.95;;;;
2019/08/07 00:50:01;;;;;;;3.5;3.1;;;;;;;18.96;72.30762;94816.3;;;;
2019/08/07 00:51:04;;;;;;;3.5;3.1;;;;;;;18.96;72.30762;94816.3;;;;
2019/08/07 00:52:05;;;;;;;3.5;3.1;;;;;;;18.96;72.30762;94816.3;;;;
2019/08/07 00:53:06;;;;;;;3.5;3.1;;;;;;;18.96;72.30762;94816.3;;;;
2019/08/07 00:54:08;;;;;;;3.5;3.1;;;;;;;18.96;72.30762;94816.3;;;;
2019/08/07 00:55:09;;;;;;;3.5;3.1;;;;;;;18.96;72.30762;94816.3;;;;
2019/08/07 00:56:10;;;;;;;3.5;3.1;;;;;;;18.96;72.30762;94816.3;;;;
2019/08/07 00:57:11;;;;;;;3.5;3.1;;;;;;;18.96;72.30762;94816.3;;;;
2019/08/07 00:58:12;;;;;;;3.5;3.1;;;;;;;18.96;72.30762;94816.3;;;;
2019/08/07 00:59:14;;;;;;;3.5;3.1;;;;;;;18.96;72.30762;94816.3;;;;
2019/08/07 01:00:15;;;;;;;3.5;3.1;;;;;;;18.96;72.30762;94816.3;;;;
2019/08/07 01:01:17;;;;;;;3.65;3.1;;;;;;;18.87;73.9502;94810.47;;;;
2019/08/07 01:02:18;;;;;;;3.65;3.1;;;;;;;18.87;73.9502;94810.47;;;;
2019/08/07 01:03:20;;;;;;;3.65;3.1;;;;;;;18.87;73.9502;94810.47;;;;
2019/08/07 01:04:21;;;;;;;3.65;3.1;;;;;;;18.87;73.9502;94810.47;;;;
2019/08/07 01:05:22;;;;;;;3.65;3.1;;;;;;;18.87;73.9502;94810.47;;;;
2019/08/07 01:06:23;;;;;;;3.65;3.1;;;;;;;18.87;73.9502;94810.47;;;;
2019/08/07 01:07:24;;;;;;;3.65;3.1;;;;;;;18.87;73.9502;94810.47;;;;
2019/08/07 01:08:25;;;;;;;3.65;3.1;;;;;;;18.87;73.9502;94810.47;;;;
2019/08/07 01:09:27;;;;;;;3.65;3.1;;;;;;;18.87;73.9502;94810.47;;;;
2019/08/07 01:10:28;;;;;;;3.65;3.1;;;;;;;18.87;73.9502;94810.47;;;;
2019/08/07 01:12:20;;;;;;;3.45;3.15;;;;;;;18.87;74.50684;94813.2;;;;
2019/08/07 01:13:21;;;;;;;3.45;3.15;;;;;;;18.87;74.50684;94813.2;;;;
2019/08/07 01:14:23;;;;;;;3.45;3.15;;;;;;;18.87;74.50684;94813.2;;;;
2019/08/07 01:15:24;;;;;;;3.45;3.15;;;;;;;18.87;74.50684;94813.2;;;;
2019/08/07 01:16:25;;;;;;;3.45;3.15;;;;;;;18.87;74.50684;94813.2;;;;
2019/08/07 01:17:27;;;;;;;3.45;3.15;;;;;;;18.87;74.50684;94813.2;;;;
2019/08/07 01:18:28;;;;;;;3.45;3.15;;;;;;;18.87;74.50684;94813.2;;;;
2019/08/07 01:19:29;;;;;;;3.45;3.15;;;;;;;18.87;74.50684;94813.2;;;;
2019/08/07 01:20:31;;;;;;;3.45;3.15;;;;;;;18.87;74.50684;94813.2;;;;
2019/08/07 01:21:32;;;;;;;3.45;3.15;;;;;;;18.87;74.50684;94813.2;;;;
2019/08/07 01:22:34;;;;;;;3.7;3.1;;;;;;;18.76;74.65332;94817.05;;;;
2019/08/07 01:23:35;;;;;;;3.7;3.1;;;;;;;18.76;74.65332;94817.05;;;;
2019/08/07 01:24:36;;;;;;;3.7;3.1;;;;;;;18.76;74.65332;94817.05;;;;
2019/08/07 01:25:38;;;;;;;3.7;3.1;;;;;;;18.76;74.65332;94817.05;;;;
2019/08/07 01:26:39;;;;;;;3.7;3.1;;;;;;;18.76;74.65332;94817.05;;;;
2019/08/07 01:27:40;;;;;;;3.7;3.1;;;;;;;18.76;74.65332;94817.05;;;;
2019/08/07 01:28:41;;;;;;;3.7;3.1;;;;;;;18.76;74.65332;94817.05;;;;
2019/08/07 01:29:42;;;;;;;3.7;3.1;;;;;;;18.76;74.65332;94817.05;;;;
2019/08/07 01:30:44;;;;;;;3.7;3.1;;;;;;;18.76;74.65332;94817.05;;;;
2019/08/07 01:31:45;;;;;;;3.7;3.1;;;;;;;18.76;74.65332;94817.05;;;;
2019/08/07 01:32:46;;;;;;;3.35;3.05;;;;;;;18.81;75.26953;94808.5;;;;
2019/08/07 01:33:47;;;;;;;3.35;3.05;;;;;;;18.81;75.26953;94808.5;;;;
2019/08/07 01:34:49;;;;;;;3.35;3.05;;;;;;;18.81;75.26953;94808.5;;;;
2019/08/07 01:35:50;;;;;;;3.35;3.05;;;;;;;18.81;75.26953;94808.5;;;;
2019/08/07 01:36:52;;;;;;;3.35;3.05;;;;;;;18.81;75.26953;94808.5;;;;
2019/08/07 01:37:53;;;;;;;3.35;3.05;;;;;;;18.81;75.26953;94808.5;;;;
2019/08/07 01:38:54;;;;;;;3.35;3.05;;;;;;;18.81;75.26953;94808.5;;;;
2019/08/07 01:39:55;;;;;;;3.35;3.05;;;;;;;18.81;75.26953;94808.5;;;;
2019/08/07 01:40:57;;;;;;;3.35;3.05;;;;;;;18.81;75.26953;94808.5;;;;
2019/08/07 01:41:58;;;;;;;3.35;3.05;;;;;;;18.81;75.26953;94808.5;;;;
2019/08/07 01:42:59;;;;;;;3.5;3;;;;;;;18.82;75.33887;94812.3;;;;
2019/08/07 01:44:01;;;;;;;3.5;3;;;;;;;18.82;75.33887;94812.3;;;;
2019/08/07 01:45:02;;;;;;;3.5;3;;;;;;;18.82;75.33887;94812.3;;;;
2019/08/07 01:46:04;;;;;;;3.5;3;;;;;;;18.82;75.33887;94812.3;;;;
2019/08/07 01:47:05;;;;;;;3.5;3;;;;;;;18.82;75.33887;94812.3;;;;
2019/08/07 01:48:07;;;;;;;3.5;3;;;;;;;18.82;75.33887;94812.3;;;;
2019/08/07 01:49:08;;;;;;;3.5;3;;;;;;;18.82;75.33887;94812.3;;;;
2019/08/07 01:50:09;;;;;;;3.5;3;;;;;;;18.82;75.33887;94812.3;;;;
2019/08/07 01:51:11;;;;;;;3.5;3;;;;;;;18.82;75.33887;94812.3;;;;
2019/08/07 01:52:12;;;;;;;3.5;3;;;;;;;18.82;75.33887;94812.3;;;;
2019/08/07 01:53:13;;;;;;;3.5;3;;;;;;;18.82;75.33887;94812.3;;;;
2019/08/07 01:54:14;;;;;;;3.65;3.05;;;;;;;18.88;75.30469;94811.53;;;;
2019/08/07 01:55:16;;;;;;;3.65;3.05;;;;;;;18.88;75.30469;94811.53;;;;
2019/08/07 01:56:17;;;;;;;3.65;3.05;;;;;;;18.88;75.30469;94811.53;;;;
2019/08/07 01:57:18;;;;;;;3.65;3.05;;;;;;;18.88;75.30469;94811.53;;;;
2019/08/07 01:58:20;;;;;;;3.65;3.05;;;;;;;18.88;75.30469;94811.53;;;;
2019/08/07 01:59:21;;;;;;;3.65;3.05;;;;;;;18.88;75.30469;94811.53;;;;
2019/08/07 02:00:22;;;;;;;3.65;3.05;;;;;;;18.88;75.30469;94811.53;;;;
2019/08/07 02:01:49;;;;;;;3.65;3.05;;;;;;;18.88;75.30469;94811.53;;;;
2019/08/07 02:02:51;;;;;;;3.65;3.05;;;;;;;18.88;75.30469;94811.53;;;;
2019/08/07 02:03:52;;;;;;;3.65;3.05;;;;;;;18.88;75.30469;94811.53;;;;
2019/08/07 02:04:53;;;;;;;3.4;3.1;;;;;;;18.83;75.38379;94773.88;;;;
2019/08/07 02:05:55;;;;;;;3.4;3.1;;;;;;;18.83;75.38379;94773.88;;;;
2019/08/07 02:06:56;;;;;;;3.4;3.1;;;;;;;18.83;75.38379;94773.88;;;;
2019/08/07 02:07:57;;;;;;;3.4;3.1;;;;;;;18.83;75.38379;94773.88;;;;
2019/08/07 02:08:58;;;;;;;3.4;3.1;;;;;;;18.83;75.38379;94773.88;;;;
2019/08/07 02:10:00;;;;;;;3.4;3.1;;;;;;;18.83;75.38379;94773.88;;;;
2019/08/07 02:11:03;;;;;;;3.4;3.1;;;;;;;18.83;75.38379;94773.88;;;;
2019/08/07 02:12:29;;;;;;;3.4;3.1;;;;;;;18.83;75.38379;94773.88;;;;
2019/08/07 02:13:31;;;;;;;3.4;3.1;;;;;;;18.83;75.38379;94773.88;;;;
2019/08/07 02:14:41;;;;;;;3.4;3.1;;;;;;;18.83;75.38379;94773.88;;;;
2019/08/07 02:15:42;;;;;;;3.4;3.1;;;;;;;18.76;76.30957;94763.3;;;;
2019/08/07 02:16:44;;;;;;;3.4;3.1;;;;;;;18.76;76.30957;94763.3;;;;
2019/08/07 02:17:45;;;;;;;3.4;3.1;;;;;;;18.76;76.30957;94763.3;;;;
2019/08/07 02:18:46;;;;;;;3.4;3.1;;;;;;;18.76;76.30957;94763.3;;;;
2019/08/07 02:19:47;;;;;;;3.4;3.1;;;;;;;18.76;76.30957;94763.3;;;;
2019/08/07 02:20:49;;;;;;;3.4;3.1;;;;;;;18.76;76.30957;94763.3;;;;
2019/08/07 02:21:50;;;;;;;3.4;3.1;;;;;;;18.76;76.30957;94763.3;;;;
2019/08/07 02:22:51;;;;;;;3.4;3.1;;;;;;;18.76;76.30957;94763.3;;;;
2019/08/07 02:23:53;;;;;;;3.4;3.1;;;;;;;18.76;76.30957;94763.3;;;;
2019/08/07 02:24:55;;;;;;;3.4;3.1;;;;;;;18.76;76.30957;94763.3;;;;
2019/08/07 02:25:56;;;;;;;3.3;3;;;;;;;18.62;77.06934;94758.34;;;;
2019/08/07 02:26:57;;;;;;;3.3;3;;;;;;;18.62;77.06934;94758.34;;;;
2019/08/07 02:27:59;;;;;;;3.3;3;;;;;;;18.62;77.06934;94758.34;;;;
2019/08/07 02:29:00;;;;;;;3.3;3;;;;;;;18.62;77.06934;94758.34;;;;
2019/08/07 02:30:01;;;;;;;3.3;3;;;;;;;18.62;77.06934;94758.34;;;;
2019/08/07 02:31:04;;;;;;;3.3;3;;;;;;;18.62;77.06934;94758.34;;;;
2019/08/07 02:32:05;;;;;;;3.3;3;;;;;;;18.62;77.06934;94758.34;;;;
2019/08/07 02:33:07;;;;;;;3.3;3;;;;;;;18.62;77.06934;94758.34;;;;
2019/08/07 02:34:08;;;;;;;3.3;3;;;;;;;18.62;77.06934;94758.34;;;;
2019/08/07 02:35:09;;;;;;;3.3;3;;;;;;;18.62;77.06934;94758.34;;;;
2019/08/07 02:36:10;;;;;;;3.1;2.9;;;;;;;18.59;78.07617;94761.27;;;;
2019/08/07 02:37:12;;;;;;;3.1;2.9;;;;;;;18.59;78.07617;94761.27;;;;
2019/08/07 02:38:13;;;;;;;3.1;2.9;;;;;;;18.59;78.07617;94761.27;;;;
2019/08/07 02:39:14;;;;;;;3.1;2.9;;;;;;;18.59;78.07617;94761.27;;;;
2019/08/07 02:40:16;;;;;;;3.1;2.9;;;;;;;18.59;78.07617;94761.27;;;;
2019/08/07 02:41:17;;;;;;;3.1;2.9;;;;;;;18.59;78.07617;94761.27;;;;
2019/08/07 02:42:19;;;;;;;3.1;2.9;;;;;;;18.59;78.07617;94761.27;;;;
2019/08/07 02:43:20;;;;;;;3.1;2.9;;;;;;;18.59;78.07617;94761.27;;;;
2019/08/07 02:44:21;;;;;;;3.1;2.9;;;;;;;18.59;78.07617;94761.27;;;;
2019/08/07 02:45:23;;;;;;;3.1;2.9;;;;;;;18.59;78.07617;94761.27;;;;
2019/08/07 02:46:31;;;;;;;3.6;3.3;;;;;;;18.49;78.40723;94751.29;;;;
2019/08/07 02:47:32;;;;;;;3.6;3.3;;;;;;;18.49;78.40723;94751.29;;;;
2019/08/07 02:48:33;;;;;;;3.6;3.3;;;;;;;18.49;78.40723;94751.29;;;;
2019/08/07 02:49:34;;;;;;;3.6;3.3;;;;;;;18.49;78.40723;94751.29;;;;
2019/08/07 02:50:35;;;;;;;3.6;3.3;;;;;;;18.49;78.40723;94751.29;;;;
2019/08/07 02:51:37;;;;;;;3.6;3.3;;;;;;;18.49;78.40723;94751.29;;;;
2019/08/07 02:52:38;;;;;;;3.6;3.3;;;;;;;18.49;78.40723;94751.29;;;;
2019/08/07 02:53:39;;;;;;;3.6;3.3;;;;;;;18.49;78.40723;94751.29;;;;
2019/08/07 02:54:40;;;;;;;3.6;3.3;;;;;;;18.49;78.40723;94751.29;;;;
2019/08/07 02:55:41;;;;;;;3.6;3.3;;;;;;;18.49;78.40723;94751.29;;;;
2019/08/07 02:56:43;;;;;;;3.6;3.3;;;;;;;18.49;78.40723;94751.29;;;;
2019/08/07 02:57:44;;;;;;;3.2;2.95;;;;;;;18.42;79.08105;94744.03;;;;
2019/08/07 02:58:46;;;;;;;3.2;2.95;;;;;;;18.42;79.08105;94744.03;;;;
2019/08/07 02:59:47;;;;;;;3.2;2.95;;;;;;;18.42;79.08105;94744.03;;;;
2019/08/07 03:00:48;;;;;;;3.2;2.95;;;;;;;18.42;79.08105;94744.03;;;;
2019/08/07 03:02:00;;;;;;;3.2;2.95;;;;;;;18.42;79.08105;94744.03;;;;
2019/08/07 03:03:02;;;;;;;3.2;2.95;;;;;;;18.42;79.08105;94744.03;;;;
2019/08/07 03:04:03;;;;;;;3.2;2.95;;;;;;;18.42;79.08105;94744.03;;;;
2019/08/07 03:05:04;;;;;;;3.2;2.95;;;;;;;18.42;79.08105;94744.03;;;;
2019/08/07 03:06:06;;;;;;;3.2;2.95;;;;;;;18.42;79.08105;94744.03;;;;
2019/08/07 03:07:07;;;;;;;3.2;2.95;;;;;;;18.42;79.08105;94744.03;;;;
2019/08/07 03:08:08;;;;;;;3.5;3.2;;;;;;;18.3;79.54688;94720.97;;;;
2019/08/07 03:09:10;;;;;;;3.5;3.2;;;;;;;18.3;79.54688;94720.97;;;;
2019/08/07 03:10:11;;;;;;;3.5;3.2;;;;;;;18.3;79.54688;94720.97;;;;
2019/08/07 03:11:14;;;;;;;3.5;3.2;;;;;;;18.3;79.54688;94720.97;;;;
2019/08/07 03:12:15;;;;;;;3.5;3.2;;;;;;;18.3;79.54688;94720.97;;;;
2019/08/07 03:13:16;;;;;;;3.5;3.2;;;;;;;18.3;79.54688;94720.97;;;;
2019/08/07 03:14:58;;;;;;;3.5;3.2;;;;;;;18.3;79.54688;94720.97;;;;
2019/08/07 03:16:21;;;;;;;3.5;3.2;;;;;;;18.3;79.54688;94720.97;;;;
2019/08/07 03:17:28;;;;;;;3.5;3.2;;;;;;;18.3;79.54688;94720.97;;;;
2019/08/07 03:18:37;;;;;;;3.45;3.15;;;;;;;18.24;80.39648;94717.13;;;;
2019/08/07 03:19:38;;;;;;;3.45;3.15;;;;;;;18.24;80.39648;94717.13;;;;
2019/08/07 03:20:43;;;;;;;3.45;3.15;;;;;;;18.24;80.39648;94717.13;;;;
2019/08/07 03:21:44;;;;;;;3.45;3.15;;;;;;;18.24;80.39648;94717.13;;;;
2019/08/07 03:22:45;;;;;;;3.45;3.15;;;;;;;18.24;80.39648;94717.13;;;;
2019/08/07 03:23:46;;;;;;;3.45;3.15;;;;;;;18.24;80.39648;94717.13;;;;
2019/08/07 03:24:47;;;;;;;3.45;3.15;;;;;;;18.24;80.39648;94717.13;;;;
2019/08/07 03:25:49;;;;;;;3.45;3.15;;;;;;;18.24;80.39648;94717.13;;;;
2019/08/07 03:26:56;;;;;;;3.45;3.15;;;;;;;18.24;80.39648;94717.13;;;;
2019/08/07 03:28:02;;;;;;;3.45;3.15;;;;;;;18.24;80.39648;94717.13;;;;
2019/08/07 03:29:04;;;;;;;3.7;3.4;;;;;;;17.98;81.16504;94716.27;;;;
2019/08/07 03:30:06;;;;;;;3.7;3.4;;;;;;;17.98;81.16504;94716.27;;;;
2019/08/07 03:31:08;;;;;;;3.7;3.4;;;;;;;17.98;81.16504;94716.27;;;;
2019/08/07 03:32:09;;;;;;;3.7;3.4;;;;;;;17.98;81.16504;94716.27;;;;
2019/08/07 03:33:10;;;;;;;3.7;3.4;;;;;;;17.98;81.16504;94716.27;;;;
2019/08/07 03:34:11;;;;;;;3.7;3.4;;;;;;;17.98;81.16504;94716.27;;;;
2019/08/07 03:35:13;;;;;;;3.7;3.4;;;;;;;17.98;81.16504;94716.27;;;;
2019/08/07 03:36:14;;;;;;;3.7;3.4;;;;;;;17.98;81.16504;94716.27;;;;
2019/08/07 03:37:15;;;;;;;3.7;3.4;;;;;;;17.98;81.16504;94716.27;;;;
2019/08/07 03:38:17;;;;;;;3.7;3.4;;;;;;;17.98;81.16504;94716.27;;;;
2019/08/07 03:39:18;;;;;;;3.7;3.4;;;;;;;17.98;81.16504;94716.27;;;;
2019/08/07 03:40:19;;;;;;;4;3.6;;;;;;;17.79;82.25781;94691.44;;;;
2019/08/07 03:41:24;;;;;;;4;3.6;;;;;;;17.79;82.25781;94691.44;;;;
2019/08/07 03:42:26;;;;;;;4;3.6;;;;;;;17.79;82.25781;94691.44;;;;
2019/08/07 03:43:27;;;;;;;4;3.6;;;;;;;17.79;82.25781;94691.44;;;;
2019/08/07 03:44:28;;;;;;;4;3.6;;;;;;;17.79;82.25781;94691.44;;;;
2019/08/07 03:45:29;;;;;;;4;3.6;;;;;;;17.79;82.25781;94691.44;;;;
2019/08/07 03:46:44;;;;;;;4;3.6;;;;;;;17.79;82.25781;94691.44;;;;
2019/08/07 03:47:45;;;;;;;4;3.6;;;;;;;17.79;82.25781;94691.44;;;;
2019/08/07 03:48:47;;;;;;;4;3.6;;;;;;;17.79;82.25781;94691.44;;;;
2019/08/07 03:49:48;;;;;;;4;3.6;;;;;;;17.79;82.25781;94691.44;;;;
2019/08/07 03:50:49;;;;;;;4.3;3.9;;;;;;;17.56;83.32227;94683.13;;;;
2019/08/07 03:51:50;;;;;;;4.3;3.9;;;;;;;17.56;83.32227;94683.13;;;;
2019/08/07 03:52:51;;;;;;;4.3;3.9;;;;;;;17.56;83.32227;94683.13;;;;
2019/08/07 03:53:52;;;;;;;4.3;3.9;;;;;;;17.56;83.32227;94683.13;;;;
2019/08/07 03:54:53;;;;;;;4.3;3.9;;;;;;;17.56;83.32227;94683.13;;;;
2019/08/07 03:55:54;;;;;;;4.3;3.9;;;;;;;17.56;83.32227;94683.13;;;;
2019/08/07 03:56:56;;;;;;;4.3;3.9;;;;;;;17.56;83.32227;94683.13;;;;
2019/08/07 03:57:57;;;;;;;4.3;3.9;;;;;;;17.56;83.32227;94683.13;;;;
2019/08/07 03:58:58;;;;;;;4.3;3.9;;;;;;;17.56;83.32227;94683.13;;;;
2019/08/07 03:59:59;;;;;;;4.3;3.9;;;;;;;17.56;83.32227;94683.13;;;;
2019/08/07 04:01:00;;;;;;;5.05;3.7;;;;;;;17.42;84.56348;94676.74;;;;
2019/08/07 04:02:01;;;;;;;5.05;3.7;;;;;;;17.42;84.56348;94676.74;;;;
2019/08/07 04:03:03;;;;;;;5.05;3.7;;;;;;;17.42;84.56348;94676.74;;;;
2019/08/07 04:04:04;;;;;;;5.05;3.7;;;;;;;17.42;84.56348;94676.74;;;;
2019/08/07 04:05:05;;;;;;;5.05;3.7;;;;;;;17.42;84.56348;94676.74;;;;
2019/08/07 04:06:07;;;;;;;5.05;3.7;;;;;;;17.42;84.56348;94676.74;;;;
2019/08/07 04:07:08;;;;;;;5.05;3.7;;;;;;;17.42;84.56348;94676.74;;;;
2019/08/07 04:08:09;;;;;;;5.05;3.7;;;;;;;17.42;84.56348;94676.74;;;;
2019/08/07 04:09:10;;;;;;;5.05;3.7;;;;;;;17.42;84.56348;94676.74;;;;
2019/08/07 04:10:11;;;;;;;5.05;3.7;;;;;;;17.42;84.56348;94676.74;;;;
2019/08/07 04:11:13;;;;;;;5.05;3.7;;;;;;;17.42;84.56348;94676.74;;;;
2019/08/07 04:12:14;;;;;;;4.8;4;;;;;;;17.33;85.56348;94683.95;;;;
2019/08/07 04:13:15;;;;;;;4.8;4;;;;;;;17.33;85.56348;94683.95;;;;
2019/08/07 04:14:16;;;;;;;4.8;4;;;;;;;17.33;85.56348;94683.95;;;;
2019/08/07 04:15:17;;;;;;;4.8;4;;;;;;;17.33;85.56348;94683.95;;;;
2019/08/07 04:16:19;;;;;;;4.8;4;;;;;;;17.33;85.56348;94683.95;;;;
2019/08/07 04:17:20;;;;;;;4.8;4;;;;;;;17.33;85.56348;94683.95;;;;
2019/08/07 04:18:21;;;;;;;4.8;4;;;;;;;17.33;85.56348;94683.95;;;;
2019/08/07 04:19:22;;;;;;;4.8;4;;;;;;;17.33;85.56348;94683.95;;;;
2019/08/07 04:20:23;;;;;;;4.8;4;;;;;;;17.33;85.56348;94683.95;;;;
2019/08/07 04:21:25;;;;;;;4.8;4;;;;;;;17.33;85.56348;94683.95;;;;
2019/08/07 04:22:26;;;;;;;4.099999;3.7;;;;;;;17.32;86.56055;94671.26;;;;
2019/08/07 04:23:27;;;;;;;4.099999;3.7;;;;;;;17.32;86.56055;94671.26;;;;
2019/08/07 04:24:28;;;;;;;4.099999;3.7;;;;;;;17.32;86.56055;94671.26;;;;
2019/08/07 04:25:29;;;;;;;4.099999;3.7;;;;;;;17.32;86.56055;94671.26;;;;
2019/08/07 04:26:42;;;;;;;4.099999;3.7;;;;;;;17.32;86.56055;94671.26;;;;
2019/08/07 04:27:44;;;;;;;4.099999;3.7;;;;;;;17.32;86.56055;94671.26;;;;
2019/08/07 04:28:49;;;;;;;4.099999;3.7;;;;;;;17.32;86.56055;94671.26;;;;
2019/08/07 04:29:56;;;;;;;4.099999;3.7;;;;;;;17.32;86.56055;94671.26;;;;
2019/08/07 04:31:19;;;;;;;4.099999;3.7;;;;;;;17.32;86.56055;94671.26;;;;
2019/08/07 04:33:28;;;;;;;4.099999;3.7;;;;;;;17.32;86.56055;94671.26;;;;
2019/08/07 04:34:30;;;;;;;6.45;3.8;;;;;;;17.31;87.22949;94661.47;;;;
2019/08/07 04:35:31;;;;;;;6.45;3.8;;;;;;;17.31;87.22949;94661.47;;;;
2019/08/07 04:36:33;;;;;;;6.45;3.8;;;;;;;17.31;87.22949;94661.47;;;;
2019/08/07 04:37:34;;;;;;;6.45;3.8;;;;;;;17.31;87.22949;94661.47;;;;
2019/08/07 04:38:35;;;;;;;6.45;3.8;;;;;;;17.31;87.22949;94661.47;;;;
2019/08/07 04:39:36;;;;;;;6.45;3.8;;;;;;;17.31;87.22949;94661.47;;;;
2019/08/07 04:40:37;;;;;;;6.45;3.8;;;;;;;17.31;87.22949;94661.47;;;;
2019/08/07 04:42:01;;;;;;;6.45;3.8;;;;;;;17.31;87.22949;94661.47;;;;
2019/08/07 04:43:02;;;;;;;6.45;3.8;;;;;;;17.31;87.22949;94661.47;;;;
2019/08/07 04:44:03;;;;;;;4.85;3.9;;;;;;;17.47;88.10547;94648.86;;;;
2019/08/07 04:45:05;;;;;;;4.85;3.9;;;;;;;17.47;88.10547;94648.86;;;;
2019/08/07 04:46:06;;;;;;;4.85;3.9;;;;;;;17.47;88.10547;94648.86;;;;
2019/08/07 04:47:09;;;;;;;4.85;3.9;;;;;;;17.47;88.10547;94648.86;;;;
2019/08/07 04:48:10;;;;;;;4.85;3.9;;;;;;;17.47;88.10547;94648.86;;;;
2019/08/07 04:49:11;;;;;;;4.85;3.9;;;;;;;17.47;88.10547;94648.86;;;;
2019/08/07 04:50:13;;;;;;;4.85;3.9;;;;;;;17.47;88.10547;94648.86;;;;
2019/08/07 04:51:15;;;;;;;4.85;3.9;;;;;;;17.47;88.10547;94648.86;;;;
2019/08/07 04:52:16;;;;;;;4.85;3.9;;;;;;;17.47;88.10547;94648.86;;;;
2019/08/07 04:53:17;;;;;;;4.85;3.9;;;;;;;17.47;88.10547;94648.86;;;;
2019/08/07 04:54:18;;;;;;;4.15;3.75;;;;;;;17.69;88.34375;94645.95;;;;
2019/08/07 04:55:19;;;;;;;4.15;3.75;;;;;;;17.69;88.34375;94645.95;;;;
2019/08/07 04:56:21;;;;;;;4.15;3.75;;;;;;;17.69;88.34375;94645.95;;;;
2019/08/07 04:57:22;;;;;;;4.15;3.75;;;;;;;17.69;88.34375;94645.95;;;;
2019/08/07 04:58:23;;;;;;;4.15;3.75;;;;;;;17.69;88.34375;94645.95;;;;
2019/08/07 04:59:24;;;;;;;4.15;3.75;;;;;;;17.69;88.34375;94645.95;;;;
2019/08/07 05:00:25;;;;;;;4.15;3.75;;;;;;;17.69;88.34375;94645.95;;;;
2019/08/07 05:01:27;;;;;;;4.15;3.75;;;;;;;17.69;88.34375;94645.95;;;;
2019/08/07 05:02:28;;;;;;;4.15;3.75;;;;;;;17.69;88.34375;94645.95;;;;
2019/08/07 05:03:29;;;;;;;4.15;3.75;;;;;;;17.69;88.34375;94645.95;;;;
2019/08/07 05:04:31;;;;;;;3.6;3.3;;;;;;;18.04;88.12012;94635.88;;;;
2019/08/07 05:05:32;;;;;;;3.6;3.3;;;;;;;18.04;88.12012;94635.88;;;;
2019/08/07 05:06:33;;;;;;;3.6;3.3;;;;;;;18.04;88.12012;94635.88;;;;
2019/08/07 05:07:34;;;;;;;3.6;3.3;;;;;;;18.04;88.12012;94635.88;;;;
2019/08/07 05:08:35;;;;;;;3.6;3.3;;;;;;;18.04;88.12012;94635.88;;;;
2019/08/07 05:09:37;;;;;;;3.6;3.3;;;;;;;18.04;88.12012;94635.88;;;;
2019/08/07 05:10:38;;;;;;;3.6;3.3;;;;;;;18.04;88.12012;94635.88;;;;
2019/08/07 05:11:39;;;;;;;3.6;3.3;;;;;;;18.04;88.12012;94635.88;;;;
2019/08/07 05:12:41;;;;;;;3.6;3.3;;;;;;;18.04;88.12012;94635.88;;;;
2019/08/07 05:13:42;;;;;;;3.6;3.3;;;;;;;18.04;88.12012;94635.88;;;;
2019/08/07 05:14:43;;;;;;;3.6;3.3;;;;;;;18.04;88.12012;94635.88;;;;
2019/08/07 05:15:44;;;;;;;5;3.85;;;;;;;18.37;87.56445;94634.91;;;;
2019/08/07 05:16:45;;;;;;;5;3.85;;;;;;;18.37;87.56445;94634.91;;;;
2019/08/07 05:17:46;;;;;;;5;3.85;;;;;;;18.37;87.56445;94634.91;;;;
2019/08/07 05:18:47;;;;;;;5;3.85;;;;;;;18.37;87.56445;94634.91;;;;
2019/08/07 05:19:48;;;;;;;5;3.85;;;;;;;18.37;87.56445;94634.91;;;;
2019/08/07 05:20:50;;;;;;;5;3.85;;;;;;;18.37;87.56445;94634.91;;;;
2019/08/07 05:21:51;;;;;;;5;3.85;;;;;;;18.37;87.56445;94634.91;;;;
2019/08/07 05:22:53;;;;;;;5;3.85;;;;;;;18.37;87.56445;94634.91;;;;
2019/08/07 05:23:54;;;;;;;5;3.85;;;;;;;18.37;87.56445;94634.91;;;;
2019/08/07 05:24:56;;;;;;;5;3.85;;;;;;;18.37;87.56445;94634.91;;;;
2019/08/07 05:25:57;;;;;;;5;3.55;;;;;;;18.81;87.67578;94644.78;;;;
2019/08/07 05:26:58;;;;;;;5;3.55;;;;;;;18.81;87.67578;94644.78;;;;
2019/08/07 05:27:59;;;;;;;5;3.55;;;;;;;18.81;87.67578;94644.78;;;;
2019/08/07 05:29:00;;;;;;;5;3.55;;;;;;;18.81;87.67578;94644.78;;;;
2019/08/07 05:30:01;;;;;;;5;3.55;;;;;;;18.81;87.67578;94644.78;;;;
2019/08/07 05:31:04;;;;;;;5;3.55;;;;;;;18.81;87.67578;94644.78;;;;
2019/08/07 05:32:05;;;;;;;5;3.55;;;;;;;18.81;87.67578;94644.78;;;;
2019/08/07 05:33:06;;;;;;;5;3.55;;;;;;;18.81;87.67578;94644.78;;;;
2019/08/07 05:34:07;;;;;;;5;3.55;;;;;;;18.81;87.67578;94644.78;;;;
2019/08/07 05:35:09;;;;;;;5;3.55;;;;;;;18.81;87.67578;94644.78;;;;
2019/08/07 05:36:10;;;;;;;5;3.55;;;;;;;18.81;87.67578;94644.78;;;;
2019/08/07 05:37:11;;;;;;;4.1;3.7;;;;;;;19.29;87.08496;94636.02;;;;
2019/08/07 05:38:13;;;;;;;4.1;3.7;;;;;;;19.29;87.08496;94636.02;;;;
2019/08/07 05:39:14;;;;;;;4.1;3.7;;;;;;;19.29;87.08496;94636.02;;;;
2019/08/07 05:40:15;;;;;;;4.1;3.7;;;;;;;19.29;87.08496;94636.02;;;;
2019/08/07 05:41:17;;;;;;;4.1;3.7;;;;;;;19.29;87.08496;94636.02;;;;
2019/08/07 05:42:18;;;;;;;4.1;3.7;;;;;;;19.29;87.08496;94636.02;;;;
2019/08/07 05:43:19;;;;;;;4.1;3.7;;;;;;;19.29;87.08496;94636.02;;;;
2019/08/07 05:44:20;;;;;;;4.1;3.7;;;;;;;19.29;87.08496;94636.02;;;;
2019/08/07 05:45:21;;;;;;;4.1;3.7;;;;;;;19.29;87.08496;94636.02;;;;
2019/08/07 05:46:23;;;;;;;4.1;3.7;;;;;;;19.29;87.08496;94636.02;;;;
2019/08/07 05:47:25;;;;;;;4.15;3.15;;;;;;;19.74;86.40039;94637.24;;;;
2019/08/07 05:48:26;;;;;;;4.15;3.15;;;;;;;19.74;86.40039;94637.24;;;;
2019/08/07 05:49:27;;;;;;;4.15;3.15;;;;;;;19.74;86.40039;94637.24;;;;
2019/08/07 05:50:28;;;;;;;4.15;3.15;;;;;;;19.74;86.40039;94637.24;;;;
2019/08/07 05:51:30;;;;;;;4.15;3.15;;;;;;;19.74;86.40039;94637.24;;;;
2019/08/07 05:52:31;;;;;;;4.15;3.15;;;;;;;19.74;86.40039;94637.24;;;;
2019/08/07 05:53:32;;;;;;;4.15;3.15;;;;;;;19.74;86.40039;94637.24;;;;
2019/08/07 05:54:34;;;;;;;4.15;3.15;;;;;;;19.74;86.40039;94637.24;;;;
2019/08/07 05:55:35;;;;;;;4.15;3.15;;;;;;;19.74;86.40039;94637.24;;;;
2019/08/07 05:56:36;;;;;;;4.15;3.15;;;;;;;19.74;86.40039;94637.24;;;;
2019/08/07 05:57:38;;;;;;;3.25;2.75;;;;;;;20.05;85.53223;94637.34;;;;
2019/08/07 05:58:39;;;;;;;3.25;2.75;;;;;;;20.05;85.53223;94637.34;;;;
2019/08/07 05:59:40;;;;;;;3.25;2.75;;;;;;;20.05;85.53223;94637.34;;;;
2019/08/07 06:00:41;;;;;;;3.25;2.75;;;;;;;20.05;85.53223;94637.34;;;;
2019/08/07 06:01:45;;;;;;;3.25;2.75;;;;;;;20.05;85.53223;94637.34;;;;
2019/08/07 06:02:46;;;;;;;3.25;2.75;;;;;;;20.05;85.53223;94637.34;;;;
2019/08/07 06:03:48;;;;;;;3.25;2.75;;;;;;;20.05;85.53223;94637.34;;;;
2019/08/07 06:04:49;;;;;;;3.25;2.75;;;;;;;20.05;85.53223;94637.34;;;;
2019/08/07 06:05:50;;;;;;;3.25;2.75;;;;;;;20.05;85.53223;94637.34;;;;
2019/08/07 06:06:51;;;;;;;3.25;2.75;;;;;;;20.05;85.53223;94637.34;;;;